Jeiseyville, Illinois
Current Conditions -  °F | °C
As of 2:55 PM on Thursday 27 Nov 2014 (Local Time) from KTAZ Reporting Station
Clear Clear  
Wind Chill: 13°   Ceiling: Unl
Heat Index: 25°   Visibility: 10mi
Dew Point: 18°   Wind: 13mph
Humidity: 74%   Direction: 300°WNW
Pressure: 30.45"   Gusts: 16mph
Location:  39.5521°N, 89.3216°W
Report Text: KTAZ 272055Z AUTO 30011G14KT 10SM CLR M04/M08 A3045 RMK AO2
Loading
Personal Weather Stations






























Interactive Weather Map New forecast layout! Learn more

10-Day Weather Forecast

Advertisements
Track Severe Weather on mobile